sensor_id;sensor_type;location;lat;lon;timestamp;temperature;humidity
47336;DHT22;33068;51.990;5.926;2023-07-24T00:00:33;18.30;99.90
47336;DHT22;33068;51.990;5.926;2023-07-24T00:03:01;18.30;99.90
47336;DHT22;33068;51.990;5.926;2023-07-24T00:05:27;18.30;99.90
47336;DHT22;33068;51.990;5.926;2023-07-24T00:07:53;18.30;99.90
47336;DHT22;33068;51.990;5.926;2023-07-24T00:10:20;18.20;99.90
47336;DHT22;33068;51.990;5.926;2023-07-24T00:12:47;18.30;99.90
47336;DHT22;33068;51.990;5.926;2023-07-24T00:15:13;18.30;99.90
47336;DHT22;33068;51.990;5.926;2023-07-24T00:17:39;18.20;99.90
47336;DHT22;33068;51.990;5.926;2023-07-24T00:20:07;18.20;99.90
47336;DHT22;33068;51.990;5.926;2023-07-24T00:22:33;18.30;99.90
47336;DHT22;33068;51.990;5.926;2023-07-24T00:25:00;18.30;99.90
47336;DHT22;33068;51.990;5.926;2023-07-24T00:27:27;18.30;99.90
47336;DHT22;33068;51.990;5.926;2023-07-24T00:29:53;18.30;99.90
47336;DHT22;33068;51.990;5.926;2023-07-24T00:32:20;18.30;99.90
47336;DHT22;33068;51.990;5.926;2023-07-24T00:34:46;18.20;99.90
47336;DHT22;33068;51.990;5.926;2023-07-24T00:37:13;18.20;99.90
47336;DHT22;33068;51.990;5.926;2023-07-24T00:39:39;18.20;99.90
47336;DHT22;33068;51.990;5.926;2023-07-24T00:42:06;18.20;99.90
47336;DHT22;33068;51.990;5.926;2023-07-24T00:44:33;18.20;99.90
47336;DHT22;33068;51.990;5.926;2023-07-24T00:47:00;18.10;99.90
47336;DHT22;33068;51.990;5.926;2023-07-24T00:49:26;18.10;99.90
47336;DHT22;33068;51.990;5.926;2023-07-24T00:51:53;18.10;99.90
47336;DHT22;33068;51.990;5.926;2023-07-24T00:54:19;18.10;99.90
47336;DHT22;33068;51.990;5.926;2023-07-24T00:56:47;18.10;99.90
47336;DHT22;33068;51.990;5.926;2023-07-24T00:59:14;18.00;99.90
47336;DHT22;33068;51.990;5.926;2023-07-24T01:01:42;18.00;99.90
47336;DHT22;33068;51.990;5.926;2023-07-24T01:04:12;18.00;99.90
47336;DHT22;33068;51.990;5.926;2023-07-24T01:06:40;18.00;99.90
47336;DHT22;33068;51.990;5.926;2023-07-24T01:09:06;18.00;99.90
47336;DHT22;33068;51.990;5.926;2023-07-24T01:11:37;18.00;99.90
47336;DHT22;33068;51.990;5.926;2023-07-24T01:14:11;18.00;99.90
47336;DHT22;33068;51.990;5.926;2023-07-24T01:16:42;18.00;99.90
47336;DHT22;33068;51.990;5.926;2023-07-24T01:19:12;17.90;99.90
47336;DHT22;33068;51.990;5.926;2023-07-24T01:21:56;18.00;99.90
47336;DHT22;33068;51.990;5.926;2023-07-24T01:24:30;18.00;99.90
47336;DHT22;33068;51.990;5.926;2023-07-24T01:26:58;18.00;99.90
47336;DHT22;33068;51.990;5.926;2023-07-24T01:29:25;18.00;99.90
47336;DHT22;33068;51.990;5.926;2023-07-24T01:31:51;18.00;99.90
47336;DHT22;33068;51.990;5.926;2023-07-24T01:34:18;18.00;99.90
47336;DHT22;33068;51.990;5.926;2023-07-24T01:36:46;18.00;99.90
47336;DHT22;33068;51.990;5.926;2023-07-24T01:39:13;18.10;99.90
47336;DHT22;33068;51.990;5.926;2023-07-24T01:41:40;18.10;99.90
47336;DHT22;33068;51.990;5.926;2023-07-24T01:44:08;17.80;99.90
47336;DHT22;33068;51.990;5.926;2023-07-24T01:46:34;18.10;99.90
47336;DHT22;33068;51.990;5.926;2023-07-24T01:49:00;18.10;99.90
47336;DHT22;33068;51.990;5.926;2023-07-24T01:51:27;18.00;99.90
47336;DHT22;33068;51.990;5.926;2023-07-24T01:53:53;18.00;99.90
47336;DHT22;33068;51.990;5.926;2023-07-24T01:56:19;18.00;99.90
47336;DHT22;33068;51.990;5.926;2023-07-24T01:58:46;18.00;99.90
47336;DHT22;33068;51.990;5.926;2023-07-24T02:01:13;18.00;99.90
47336;DHT22;33068;51.990;5.926;2023-07-24T02:03:40;18.00;99.90
47336;DHT22;33068;51.990;5.926;2023-07-24T02:06:07;18.10;99.90
47336;DHT22;33068;51.990;5.926;2023-07-24T02:08:33;18.00;99.90
47336;DHT22;33068;51.990;5.926;2023-07-24T02:11:00;17.90;99.90
47336;DHT22;33068;51.990;5.926;2023-07-24T02:13:27;18.00;99.90
47336;DHT22;33068;51.990;5.926;2023-07-24T02:15:53;18.00;99.90
47336;DHT22;33068;51.990;5.926;2023-07-24T02:18:20;17.90;99.90
47336;DHT22;33068;51.990;5.926;2023-07-24T02:20:49;18.00;99.90
47336;DHT22;33068;51.990;5.926;2023-07-24T02:23:17;17.90;99.90
47336;DHT22;33068;51.990;5.926;2023-07-24T02:25:43;18.00;99.90
47336;DHT22;33068;51.990;5.926;2023-07-24T02:28:09;18.00;99.90
47336;DHT22;33068;51.990;5.926;2023-07-24T02:30:38;18.00;99.90
47336;DHT22;33068;51.990;5.926;2023-07-24T02:33:04;18.00;99.90
47336;DHT22;33068;51.990;5.926;2023-07-24T02:35:31;18.00;99.90
47336;DHT22;33068;51.990;5.926;2023-07-24T02:37:57;18.00;99.90
47336;DHT22;33068;51.990;5.926;2023-07-24T02:40:24;18.00;99.90
47336;DHT22;33068;51.990;5.926;2023-07-24T02:42:50;18.00;99.90
47336;DHT22;33068;51.990;5.926;2023-07-24T02:45:17;18.00;99.90
47336;DHT22;33068;51.990;5.926;2023-07-24T02:47:43;18.00;99.90
47336;DHT22;33068;51.990;5.926;2023-07-24T02:50:10;18.10;99.90
47336;DHT22;33068;51.990;5.926;2023-07-24T02:52:37;18.00;99.90
47336;DHT22;33068;51.990;5.926;2023-07-24T02:55:04;18.00;99.90
47336;DHT22;33068;51.990;5.926;2023-07-24T02:57:30;18.00;99.90
47336;DHT22;33068;51.990;5.926;2023-07-24T02:59:57;18.00;99.90
47336;DHT22;33068;51.990;5.926;2023-07-24T03:02:24;18.00;99.90
47336;DHT22;33068;51.990;5.926;2023-07-24T03:04:58;18.00;99.90
47336;DHT22;33068;51.990;5.926;2023-07-24T03:07:32;18.00;99.90
47336;DHT22;33068;51.990;5.926;2023-07-24T03:09:59;17.70;99.90
47336;DHT22;33068;51.990;5.926;2023-07-24T03:12:26;18.00;99.90
47336;DHT22;33068;51.990;5.926;2023-07-24T03:14:52;18.00;99.90
47336;DHT22;33068;51.990;5.926;2023-07-24T03:17:18;18.00;99.90
47336;DHT22;33068;51.990;5.926;2023-07-24T03:19:45;18.00;99.90
47336;DHT22;33068;51.990;5.926;2023-07-24T03:22:11;18.00;99.90
47336;DHT22;33068;51.990;5.926;2023-07-24T03:24:38;18.00;99.90
47336;DHT22;33068;51.990;5.926;2023-07-24T03:27:05;18.00;99.90
47336;DHT22;33068;51.990;5.926;2023-07-24T03:29:31;18.00;99.90
47336;DHT22;33068;51.990;5.926;2023-07-24T03:31:58;17.90;99.90
47336;DHT22;33068;51.990;5.926;2023-07-24T03:34:25;17.90;99.90
47336;DHT22;33068;51.990;5.926;2023-07-24T03:36:51;17.90;99.90
47336;DHT22;33068;51.990;5.926;2023-07-24T03:39:18;17.90;99.90
47336;DHT22;33068;51.990;5.926;2023-07-24T03:41:44;17.80;99.90
47336;DHT22;33068;51.990;5.926;2023-07-24T03:44:11;17.70;99.90
47336;DHT22;33068;51.990;5.926;2023-07-24T03:46:38;17.80;99.90
47336;DHT22;33068;51.990;5.926;2023-07-24T03:49:04;17.80;99.90
47336;DHT22;33068;51.990;5.926;2023-07-24T03:51:31;17.70;99.90
47336;DHT22;33068;51.990;5.926;2023-07-24T03:53:59;17.40;99.90
47336;DHT22;33068;51.990;5.926;2023-07-24T03:56:25;17.70;99.90
47336;DHT22;33068;51.990;5.926;2023-07-24T03:58:52;17.60;99.90
47336;DHT22;33068;51.990;5.926;2023-07-24T04:01:19;17.60;99.90
47336;DHT22;33068;51.990;5.926;2023-07-24T04:03:48;17.60;99.90
47336;DHT22;33068;51.990;5.926;2023-07-24T04:06:14;17.60;99.90
47336;DHT22;33068;51.990;5.926;2023-07-24T04:08:40;17.70;99.90
47336;DHT22;33068;51.990;5.926;2023-07-24T04:11:07;17.60;99.90
47336;DHT22;33068;51.990;5.926;2023-07-24T04:13:34;17.60;99.90
47336;DHT22;33068;51.990;5.926;2023-07-24T04:16:01;17.50;99.90
47336;DHT22;33068;51.990;5.926;2023-07-24T04:18:28;17.50;99.90
47336;DHT22;33068;51.990;5.926;2023-07-24T04:20:55;17.20;99.90
47336;DHT22;33068;51.990;5.926;2023-07-24T04:23:22;17.50;99.90
47336;DHT22;33068;51.990;5.926;2023-07-24T04:25:49;17.50;99.90
47336;DHT22;33068;51.990;5.926;2023-07-24T04:28:16;17.40;99.90
47336;DHT22;33068;51.990;5.926;2023-07-24T04:30:42;17.30;99.90
47336;DHT22;33068;51.990;5.926;2023-07-24T04:33:09;17.40;99.90
47336;DHT22;33068;51.990;5.926;2023-07-24T04:35:36;17.40;99.90
47336;DHT22;33068;51.990;5.926;2023-07-24T04:38:03;17.30;99.90
47336;DHT22;33068;51.990;5.926;2023-07-24T04:40:29;17.10;99.90
47336;DHT22;33068;51.990;5.926;2023-07-24T04:42:55;17.40;99.90
47336;DHT22;33068;51.990;5.926;2023-07-24T04:45:22;17.30;99.90
47336;DHT22;33068;51.990;5.926;2023-07-24T04:47:48;17.30;99.90
47336;DHT22;33068;51.990;5.926;2023-07-24T04:50:15;17.30;99.90
47336;DHT22;33068;51.990;5.926;2023-07-24T04:52:42;17.30;99.90
47336;DHT22;33068;51.990;5.926;2023-07-24T04:55:08;17.30;99.90
47336;DHT22;33068;51.990;5.926;2023-07-24T04:57:35;17.40;99.90
47336;DHT22;33068;51.990;5.926;2023-07-24T05:00:01;17.40;99.90
47336;DHT22;33068;51.990;5.926;2023-07-24T05:02:28;17.40;99.90
47336;DHT22;33068;51.990;5.926;2023-07-24T05:04:54;17.30;99.90
47336;DHT22;33068;51.990;5.926;2023-07-24T05:07:21;17.30;99.90
47336;DHT22;33068;51.990;5.926;2023-07-24T05:09:48;17.50;99.90
47336;DHT22;33068;51.990;5.926;2023-07-24T05:12:14;17.30;99.90
47336;DHT22;33068;51.990;5.926;2023-07-24T05:14:41;17.00;99.90
47336;DHT22;33068;51.990;5.926;2023-07-24T05:17:07;17.30;99.90
47336;DHT22;33068;51.990;5.926;2023-07-24T05:19:59;17.30;99.90
47336;DHT22;33068;51.990;5.926;2023-07-24T05:22:26;17.20;99.90
47336;DHT22;33068;51.990;5.926;2023-07-24T05:25:11;17.30;99.90
47336;DHT22;33068;51.990;5.926;2023-07-24T05:27:38;17.20;99.90
47336;DHT22;33068;51.990;5.926;2023-07-24T05:30:05;17.30;99.90
47336;DHT22;33068;51.990;5.926;2023-07-24T05:32:32;17.30;99.90
47336;DHT22;33068;51.990;5.926;2023-07-24T05:34:58;17.30;99.90
47336;DHT22;33068;51.990;5.926;2023-07-24T05:37:25;17.30;99.90
47336;DHT22;33068;51.990;5.926;2023-07-24T05:39:51;17.30;99.90
47336;DHT22;33068;51.990;5.926;2023-07-24T05:42:18;17.30;99.90
47336;DHT22;33068;51.990;5.926;2023-07-24T05:44:46;17.30;99.90
47336;DHT22;33068;51.990;5.926;2023-07-24T05:47:13;17.30;99.90
47336;DHT22;33068;51.990;5.926;2023-07-24T05:49:39;17.40;99.90
47336;DHT22;33068;51.990;5.926;2023-07-24T05:52:07;17.50;99.90
47336;DHT22;33068;51.990;5.926;2023-07-24T05:54:34;17.50;99.90
47336;DHT22;33068;51.990;5.926;2023-07-24T05:57:01;17.70;99.90
47336;DHT22;33068;51.990;5.926;2023-07-24T05:59:32;17.50;99.90
47336;DHT22;33068;51.990;5.926;2023-07-24T06:01:58;17.50;99.90
47336;DHT22;33068;51.990;5.926;2023-07-24T06:04:25;17.50;99.90
47336;DHT22;33068;51.990;5.926;2023-07-24T06:06:51;17.60;99.90
47336;DHT22;33068;51.990;5.926;2023-07-24T06:09:18;17.60;99.90
47336;DHT22;33068;51.990;5.926;2023-07-24T06:11:44;17.40;99.90
47336;DHT22;33068;51.990;5.926;2023-07-24T06:14:11;17.60;99.90
47336;DHT22;33068;51.990;5.926;2023-07-24T06:16:38;17.60;99.90
47336;DHT22;33068;51.990;5.926;2023-07-24T06:19:05;17.60;99.90
47336;DHT22;33068;51.990;5.926;2023-07-24T06:21:31;17.50;99.90
47336;DHT22;33068;51.990;5.926;2023-07-24T06:23:58;17.60;99.90
47336;DHT22;33068;51.990;5.926;2023-07-24T06:26:24;17.70;99.90
47336;DHT22;33068;51.990;5.926;2023-07-24T06:28:51;17.70;99.90
47336;DHT22;33068;51.990;5.926;2023-07-24T06:31:17;17.70;99.90
47336;DHT22;33068;51.990;5.926;2023-07-24T06:33:44;17.70;99.90
47336;DHT22;33068;51.990;5.926;2023-07-24T06:36:11;17.70;99.90
47336;DHT22;33068;51.990;5.926;2023-07-24T06:38:38;17.80;99.90
47336;DHT22;33068;51.990;5.926;2023-07-24T06:41:04;17.80;99.90
47336;DHT22;33068;51.990;5.926;2023-07-24T06:43:31;17.80;99.90
47336;DHT22;33068;51.990;5.926;2023-07-24T06:45:57;18.00;99.90
47336;DHT22;33068;51.990;5.926;2023-07-24T06:48:24;18.00;99.90
47336;DHT22;33068;51.990;5.926;2023-07-24T06:50:50;18.20;99.90
47336;DHT22;33068;51.990;5.926;2023-07-24T06:53:17;18.20;99.90
47336;DHT22;33068;51.990;5.926;2023-07-24T06:55:43;18.10;99.90
47336;DHT22;33068;51.990;5.926;2023-07-24T06:58:10;17.90;99.90
47336;DHT22;33068;51.990;5.926;2023-07-24T07:00:36;18.10;99.90
47336;DHT22;33068;51.990;5.926;2023-07-24T07:03:03;17.90;99.90
47336;DHT22;33068;51.990;5.926;2023-07-24T07:05:31;17.90;99.90
47336;DHT22;33068;51.990;5.926;2023-07-24T07:07:58;17.90;99.90
47336;DHT22;33068;51.990;5.926;2023-07-24T07:10:25;17.90;99.90
47336;DHT22;33068;51.990;5.926;2023-07-24T07:12:51;18.00;99.90
47336;DHT22;33068;51.990;5.926;2023-07-24T07:15:18;17.70;99.90
47336;DHT22;33068;51.990;5.926;2023-07-24T07:17:44;18.20;99.90
47336;DHT22;33068;51.990;5.926;2023-07-24T07:20:10;18.40;99.90
47336;DHT22;33068;51.990;5.926;2023-07-24T07:22:37;18.50;99.90
47336;DHT22;33068;51.990;5.926;2023-07-24T07:25:05;18.70;99.90
47336;DHT22;33068;51.990;5.926;2023-07-24T07:27:31;18.80;99.90
47336;DHT22;33068;51.990;5.926;2023-07-24T07:29:57;18.90;99.90
47336;DHT22;33068;51.990;5.926;2023-07-24T07:32:24;18.90;99.90
47336;DHT22;33068;51.990;5.926;2023-07-24T07:34:50;19.10;99.90
47336;DHT22;33068;51.990;5.926;2023-07-24T07:37:17;19.30;99.90
47336;DHT22;33068;51.990;5.926;2023-07-24T07:39:43;19.20;99.90
47336;DHT22;33068;51.990;5.926;2023-07-24T07:42:10;19.20;99.90
47336;DHT22;33068;51.990;5.926;2023-07-24T07:44:37;19.30;99.90
47336;DHT22;33068;51.990;5.926;2023-07-24T07:47:04;19.30;99.90
47336;DHT22;33068;51.990;5.926;2023-07-24T07:49:30;19.20;99.90
47336;DHT22;33068;51.990;5.926;2023-07-24T07:51:56;19.20;99.90
47336;DHT22;33068;51.990;5.926;2023-07-24T07:54:23;19.20;99.90
47336;DHT22;33068;51.990;5.926;2023-07-24T07:56:49;19.10;99.90
47336;DHT22;33068;51.990;5.926;2023-07-24T07:59:16;19.20;99.90
47336;DHT22;33068;51.990;5.926;2023-07-24T08:01:42;19.30;99.90
47336;DHT22;33068;51.990;5.926;2023-07-24T08:04:11;19.40;99.90
47336;DHT22;33068;51.990;5.926;2023-07-24T08:06:37;19.40;99.90
47336;DHT22;33068;51.990;5.926;2023-07-24T08:09:03;19.40;99.90
47336;DHT22;33068;51.990;5.926;2023-07-24T08:11:30;19.30;99.90
47336;DHT22;33068;51.990;5.926;2023-07-24T08:13:56;19.10;99.90
47336;DHT22;33068;51.990;5.926;2023-07-24T08:16:23;18.80;99.90
47336;DHT22;33068;51.990;5.926;2023-07-24T08:18:50;18.90;99.90
47336;DHT22;33068;51.990;5.926;2023-07-24T08:21:16;18.50;99.90
47336;DHT22;33068;51.990;5.926;2023-07-24T08:23:43;18.50;99.90
47336;DHT22;33068;51.990;5.926;2023-07-24T08:26:12;18.80;99.90
47336;DHT22;33068;51.990;5.926;2023-07-24T08:28:42;19.00;99.90
47336;DHT22;33068;51.990;5.926;2023-07-24T08:31:09;19.80;99.90
47336;DHT22;33068;51.990;5.926;2023-07-24T08:33:37;19.90;99.90
47336;DHT22;33068;51.990;5.926;2023-07-24T08:36:05;19.60;99.90
47336;DHT22;33068;51.990;5.926;2023-07-24T08:38:32;20.00;99.90
47336;DHT22;33068;51.990;5.926;2023-07-24T08:41:06;20.50;99.90
47336;DHT22;33068;51.990;5.926;2023-07-24T08:43:34;20.50;99.90
47336;DHT22;33068;51.990;5.926;2023-07-24T08:46:01;20.30;99.90
47336;DHT22;33068;51.990;5.926;2023-07-24T08:48:29;20.00;99.90
47336;DHT22;33068;51.990;5.926;2023-07-24T08:50:57;19.90;99.90
47336;DHT22;33068;51.990;5.926;2023-07-24T08:53:26;20.10;99.90
47336;DHT22;33068;51.990;5.926;2023-07-24T08:55:52;20.70;99.90
47336;DHT22;33068;51.990;5.926;2023-07-24T08:58:39;21.30;99.90
47336;DHT22;33068;51.990;5.926;2023-07-24T09:01:06;21.70;99.90
47336;DHT22;33068;51.990;5.926;2023-07-24T09:03:32;21.90;99.90
47336;DHT22;33068;51.990;5.926;2023-07-24T09:06:00;22.10;99.90
47336;DHT22;33068;51.990;5.926;2023-07-24T09:08:30;22.20;99.90
47336;DHT22;33068;51.990;5.926;2023-07-24T09:10:57;22.10;99.90
47336;DHT22;33068;51.990;5.926;2023-07-24T09:13:23;21.30;99.90
47336;DHT22;33068;51.990;5.926;2023-07-24T09:15:50;21.20;99.90
47336;DHT22;33068;51.990;5.926;2023-07-24T09:18:16;21.00;99.90
47336;DHT22;33068;51.990;5.926;2023-07-24T09:20:44;20.80;99.90
47336;DHT22;33068;51.990;5.926;2023-07-24T09:23:12;21.00;99.90
47336;DHT22;33068;51.990;5.926;2023-07-24T09:25:40;21.10;99.90
47336;DHT22;33068;51.990;5.926;2023-07-24T09:28:11;21.10;99.90
47336;DHT22;33068;51.990;5.926;2023-07-24T09:30:38;21.10;99.90
47336;DHT22;33068;51.990;5.926;2023-07-24T09:33:05;21.30;99.90
47336;DHT22;33068;51.990;5.926;2023-07-24T09:35:32;21.30;99.90
47336;DHT22;33068;51.990;5.926;2023-07-24T09:38:03;21.30;99.90
47336;DHT22;33068;51.990;5.926;2023-07-24T09:40:38;21.60;99.90
47336;DHT22;33068;51.990;5.926;2023-07-24T09:43:13;21.80;99.90
47336;DHT22;33068;51.990;5.926;2023-07-24T09:45:40;22.10;99.90
47336;DHT22;33068;51.990;5.926;2023-07-24T09:48:07;22.30;99.90
47336;DHT22;33068;51.990;5.926;2023-07-24T09:50:37;22.70;99.90
47336;DHT22;33068;51.990;5.926;2023-07-24T09:53:04;22.70;99.90
47336;DHT22;33068;51.990;5.926;2023-07-24T09:55:37;22.10;99.90
47336;DHT22;33068;51.990;5.926;2023-07-24T09:58:06;21.60;99.90
47336;DHT22;33068;51.990;5.926;2023-07-24T10:00:33;21.10;99.90
47336;DHT22;33068;51.990;5.926;2023-07-24T10:03:00;21.00;99.90
47336;DHT22;33068;51.990;5.926;2023-07-24T10:05:28;21.00;99.90
47336;DHT22;33068;51.990;5.926;2023-07-24T10:07:55;21.10;99.90
47336;DHT22;33068;51.990;5.926;2023-07-24T10:10:23;21.30;99.90
47336;DHT22;33068;51.990;5.926;2023-07-24T10:12:51;21.40;99.90
47336;DHT22;33068;51.990;5.926;2023-07-24T10:15:18;21.20;99.90
47336;DHT22;33068;51.990;5.926;2023-07-24T10:17:45;21.00;99.90
47336;DHT22;33068;51.990;5.926;2023-07-24T10:20:12;20.70;99.90
47336;DHT22;33068;51.990;5.926;2023-07-24T10:22:41;20.40;99.90
47336;DHT22;33068;51.990;5.926;2023-07-24T10:25:08;20.30;99.90
47336;DHT22;33068;51.990;5.926;2023-07-24T10:27:36;20.50;99.90
47336;DHT22;33068;51.990;5.926;2023-07-24T10:30:05;20.70;99.90
47336;DHT22;33068;51.990;5.926;2023-07-24T10:32:33;20.70;99.90
47336;DHT22;33068;51.990;5.926;2023-07-24T10:35:00;20.80;99.90
47336;DHT22;33068;51.990;5.926;2023-07-24T10:37:33;20.70;99.90
47336;DHT22;33068;51.990;5.926;2023-07-24T10:40:00;20.90;99.90
47336;DHT22;33068;51.990;5.926;2023-07-24T10:42:26;21.20;99.90
47336;DHT22;33068;51.990;5.926;2023-07-24T10:45:04;20.90;99.90
47336;DHT22;33068;51.990;5.926;2023-07-24T10:47:30;20.90;99.90
47336;DHT22;33068;51.990;5.926;2023-07-24T10:49:57;20.70;99.90
47336;DHT22;33068;51.990;5.926;2023-07-24T10:52:27;20.60;99.90
47336;DHT22;33068;51.990;5.926;2023-07-24T10:54:54;20.60;99.90
47336;DHT22;33068;51.990;5.926;2023-07-24T10:57:25;20.50;99.90
47336;DHT22;33068;51.990;5.926;2023-07-24T10:59:52;20.50;99.90
47336;DHT22;33068;51.990;5.926;2023-07-24T11:02:19;20.50;99.90
47336;DHT22;33068;51.990;5.926;2023-07-24T11:04:46;20.40;99.90
47336;DHT22;33068;51.990;5.926;2023-07-24T11:07:12;20.30;99.90
47336;DHT22;33068;51.990;5.926;2023-07-24T11:09:39;20.40;99.90
47336;DHT22;33068;51.990;5.926;2023-07-24T11:12:13;20.40;99.90
47336;DHT22;33068;51.990;5.926;2023-07-24T11:14:50;20.40;99.90
47336;DHT22;33068;51.990;5.926;2023-07-24T11:17:16;20.30;99.90
47336;DHT22;33068;51.990;5.926;2023-07-24T11:19:43;20.30;99.90
47336;DHT22;33068;51.990;5.926;2023-07-24T11:22:10;20.70;99.90
47336;DHT22;33068;51.990;5.926;2023-07-24T11:24:46;20.60;99.90
47336;DHT22;33068;51.990;5.926;2023-07-24T11:27:14;20.90;99.90
47336;DHT22;33068;51.990;5.926;2023-07-24T11:29:41;21.00;99.90
47336;DHT22;33068;51.990;5.926;2023-07-24T11:32:08;20.90;99.90
47336;DHT22;33068;51.990;5.926;2023-07-24T11:34:35;20.90;99.90
47336;DHT22;33068;51.990;5.926;2023-07-24T11:37:03;21.20;99.90
47336;DHT22;33068;51.990;5.926;2023-07-24T11:39:29;21.00;99.90
47336;DHT22;33068;51.990;5.926;2023-07-24T11:41:56;20.90;99.90
47336;DHT22;33068;51.990;5.926;2023-07-24T11:44:27;20.60;99.90
47336;DHT22;33068;51.990;5.926;2023-07-24T11:47:00;20.30;99.90
47336;DHT22;33068;51.990;5.926;2023-07-24T11:49:28;20.40;99.90
47336;DHT22;33068;51.990;5.926;2023-07-24T11:52:00;20.50;99.90
47336;DHT22;33068;51.990;5.926;2023-07-24T11:54:27;20.70;99.90
47336;DHT22;33068;51.990;5.926;2023-07-24T11:56:54;20.90;99.90
47336;DHT22;33068;51.990;5.926;2023-07-24T11:59:20;21.00;99.90
47336;DHT22;33068;51.990;5.926;2023-07-24T12:01:48;21.20;99.90
47336;DHT22;33068;51.990;5.926;2023-07-24T12:04:15;21.30;99.90
47336;DHT22;33068;51.990;5.926;2023-07-24T12:06:42;21.50;99.90
47336;DHT22;33068;51.990;5.926;2023-07-24T12:09:10;21.60;99.90
47336;DHT22;33068;51.990;5.926;2023-07-24T12:11:40;21.80;99.90
47336;DHT22;33068;51.990;5.926;2023-07-24T12:14:07;21.90;99.90
47336;DHT22;33068;51.990;5.926;2023-07-24T12:16:34;21.80;99.90
47336;DHT22;33068;51.990;5.926;2023-07-24T12:19:00;21.80;99.90
47336;DHT22;33068;51.990;5.926;2023-07-24T12:21:26;21.90;99.90
47336;DHT22;33068;51.990;5.926;2023-07-24T12:23:53;21.90;99.90
47336;DHT22;33068;51.990;5.926;2023-07-24T12:26:19;22.20;99.90
47336;DHT22;33068;51.990;5.926;2023-07-24T12:28:47;22.60;99.90
47336;DHT22;33068;51.990;5.926;2023-07-24T12:31:13;22.70;99.90
47336;DHT22;33068;51.990;5.926;2023-07-24T12:33:40;22.50;99.90
47336;DHT22;33068;51.990;5.926;2023-07-24T12:36:06;22.20;99.90
47336;DHT22;33068;51.990;5.926;2023-07-24T12:38:33;21.90;99.90
47336;DHT22;33068;51.990;5.926;2023-07-24T12:40:59;22.20;99.90
47336;DHT22;33068;51.990;5.926;2023-07-24T12:43:25;22.00;99.90
47336;DHT22;33068;51.990;5.926;2023-07-24T12:45:53;21.70;99.90
47336;DHT22;33068;51.990;5.926;2023-07-24T12:48:19;21.60;99.90
47336;DHT22;33068;51.990;5.926;2023-07-24T12:50:45;22.20;99.90
47336;DHT22;33068;51.990;5.926;2023-07-24T12:53:12;22.50;99.90
47336;DHT22;33068;51.990;5.926;2023-07-24T12:55:38;22.80;99.90
47336;DHT22;33068;51.990;5.926;2023-07-24T12:58:05;22.90;99.90
47336;DHT22;33068;51.990;5.926;2023-07-24T13:00:31;22.90;99.90
47336;DHT22;33068;51.990;5.926;2023-07-24T13:02:58;23.10;99.90
47336;DHT22;33068;51.990;5.926;2023-07-24T13:05:25;23.30;99.90
47336;DHT22;33068;51.990;5.926;2023-07-24T13:07:51;23.40;99.90
47336;DHT22;33068;51.990;5.926;2023-07-24T13:10:18;23.50;99.90
47336;DHT22;33068;51.990;5.926;2023-07-24T13:12:44;23.40;99.90
47336;DHT22;33068;51.990;5.926;2023-07-24T13:15:11;23.90;99.90
47336;DHT22;33068;51.990;5.926;2023-07-24T13:17:37;24.10;99.90
47336;DHT22;33068;51.990;5.926;2023-07-24T13:20:06;23.70;99.90
47336;DHT22;33068;51.990;5.926;2023-07-24T13:22:33;23.80;99.90
47336;DHT22;33068;51.990;5.926;2023-07-24T13:24:59;24.20;99.90
47336;DHT22;33068;51.990;5.926;2023-07-24T13:27:26;24.20;99.90
47336;DHT22;33068;51.990;5.926;2023-07-24T13:29:52;24.20;99.90
47336;DHT22;33068;51.990;5.926;2023-07-24T13:32:19;24.50;99.90
47336;DHT22;33068;51.990;5.926;2023-07-24T13:34:45;25.10;99.90
47336;DHT22;33068;51.990;5.926;2023-07-24T13:37:13;24.60;99.90
47336;DHT22;33068;51.990;5.926;2023-07-24T13:39:40;24.30;99.90
47336;DHT22;33068;51.990;5.926;2023-07-24T13:42:06;24.40;99.90
47336;DHT22;33068;51.990;5.926;2023-07-24T13:44:33;24.30;99.90
47336;DHT22;33068;51.990;5.926;2023-07-24T13:46:59;24.60;99.90
47336;DHT22;33068;51.990;5.926;2023-07-24T13:49:26;24.80;99.90
47336;DHT22;33068;51.990;5.926;2023-07-24T13:51:52;25.20;99.90
47336;DHT22;33068;51.990;5.926;2023-07-24T13:54:19;25.40;99.90
47336;DHT22;33068;51.990;5.926;2023-07-24T13:56:46;25.40;99.90
47336;DHT22;33068;51.990;5.926;2023-07-24T13:59:12;25.70;99.90
47336;DHT22;33068;51.990;5.926;2023-07-24T14:01:38;25.60;99.90
47336;DHT22;33068;51.990;5.926;2023-07-24T14:04:05;25.80;99.90
47336;DHT22;33068;51.990;5.926;2023-07-24T14:06:31;25.90;99.90
47336;DHT22;33068;51.990;5.926;2023-07-24T14:08:58;25.20;99.90
47336;DHT22;33068;51.990;5.926;2023-07-24T14:11:25;25.50;99.90
47336;DHT22;33068;51.990;5.926;2023-07-24T14:13:52;25.60;99.90
47336;DHT22;33068;51.990;5.926;2023-07-24T14:16:19;25.60;99.90
47336;DHT22;33068;51.990;5.926;2023-07-24T14:18:45;25.80;99.90
47336;DHT22;33068;51.990;5.926;2023-07-24T14:21:12;26.10;99.90
47336;DHT22;33068;51.990;5.926;2023-07-24T14:23:38;26.30;99.90
47336;DHT22;33068;51.990;5.926;2023-07-24T14:26:04;26.30;99.20
47336;DHT22;33068;51.990;5.926;2023-07-24T14:28:31;25.70;99.90
47336;DHT22;33068;51.990;5.926;2023-07-24T14:30:58;24.80;99.90
47336;DHT22;33068;51.990;5.926;2023-07-24T14:33:25;24.10;99.90
47336;DHT22;33068;51.990;5.926;2023-07-24T14:35:51;22.70;99.90
47336;DHT22;33068;51.990;5.926;2023-07-24T14:38:17;21.00;99.90
47336;DHT22;33068;51.990;5.926;2023-07-24T14:40:44;20.10;99.90
47336;DHT22;33068;51.990;5.926;2023-07-24T14:43:10;19.30;99.90
47336;DHT22;33068;51.990;5.926;2023-07-24T14:45:37;19.10;99.90
47336;DHT22;33068;51.990;5.926;2023-07-24T14:48:05;19.00;99.90
47336;DHT22;33068;51.990;5.926;2023-07-24T14:50:34;19.20;99.90
47336;DHT22;33068;51.990;5.926;2023-07-24T14:53:01;19.40;99.90
47336;DHT22;33068;51.990;5.926;2023-07-24T14:55:27;19.40;99.90
47336;DHT22;33068;51.990;5.926;2023-07-24T14:57:54;19.40;99.90
47336;DHT22;33068;51.990;5.926;2023-07-24T15:00:20;19.10;99.90
47336;DHT22;33068;51.990;5.926;2023-07-24T15:02:48;19.10;99.90
47336;DHT22;33068;51.990;5.926;2023-07-24T15:05:59;19.20;99.90
47336;DHT22;33068;51.990;5.926;2023-07-24T15:09:30;19.20;99.90
47336;DHT22;33068;51.990;5.926;2023-07-24T15:12:10;19.10;99.90
47336;DHT22;33068;51.990;5.926;2023-07-24T15:14:37;19.20;99.90
47336;DHT22;33068;51.990;5.926;2023-07-24T15:17:04;19.30;99.90
47336;DHT22;33068;51.990;5.926;2023-07-24T15:19:30;19.20;99.90
47336;DHT22;33068;51.990;5.926;2023-07-24T15:21:57;19.20;99.90
47336;DHT22;33068;51.990;5.926;2023-07-24T15:24:23;19.00;99.90
47336;DHT22;33068;51.990;5.926;2023-07-24T15:26:52;19.00;99.90
47336;DHT22;33068;51.990;5.926;2023-07-24T15:29:19;19.10;99.90
47336;DHT22;33068;51.990;5.926;2023-07-24T15:31:45;19.50;99.90